createdAt,value
2022-08-23T00:04:11.516Z,26.33
2022-08-23T00:09:09.583Z,26.43
2022-08-23T00:14:08.354Z,26.43
2022-08-23T00:19:05.876Z,26.37
2022-08-23T00:24:02.833Z,26.32
2022-08-23T00:29:00.142Z,26.53
2022-08-23T00:33:56.797Z,26.40
2022-08-23T00:38:53.541Z,26.46
2022-08-23T00:44:04.915Z,26.68
2022-08-23T00:49:04.238Z,26.82
2022-08-23T00:54:01.300Z,26.80
2022-08-23T00:58:58.631Z,26.81
2022-08-23T01:04:04.465Z,26.87
2022-08-23T01:09:05.973Z,26.74
2022-08-23T01:14:06.214Z,26.79
2022-08-23T01:19:12.582Z,26.82
2022-08-23T01:24:10.546Z,26.94
2022-08-23T01:29:24.716Z,26.84
2022-08-23T01:34:24.792Z,26.85
2022-08-23T01:39:22.250Z,26.77
2022-08-23T01:44:19.764Z,26.96
2022-08-23T01:49:17.086Z,26.97
2022-08-23T01:54:13.796Z,27.24
2022-08-23T01:59:12.820Z,27.06
2022-08-23T02:04:14.197Z,27.13
2022-08-23T02:09:15.957Z,27.02
2022-08-23T02:14:17.883Z,27.02
2022-08-23T02:19:20.740Z,26.84
2022-08-23T02:24:18.837Z,26.79
2022-08-23T02:29:17.374Z,26.86
2022-08-23T02:34:17.028Z,26.94
2022-08-23T02:39:14.889Z,26.94
2022-08-23T02:44:11.686Z,26.59
2022-08-23T02:49:11.522Z,26.15
2022-08-23T02:54:08.800Z,26.00
2022-08-23T02:59:06.270Z,26.29
2022-08-23T03:04:04.629Z,26.28
2022-08-23T03:09:02.425Z,26.44
2022-08-23T03:14:00.706Z,26.66
2022-08-23T03:18:57.722Z,26.60
2022-08-23T03:23:54.612Z,26.52
2022-08-23T03:28:54.396Z,26.14
2022-08-23T03:33:57.592Z,26.43
2022-08-23T03:38:55.510Z,26.49
2022-08-23T03:43:53.232Z,25.91
2022-08-23T03:48:50.962Z,25.88
2022-08-23T03:53:48.881Z,26.16
2022-08-23T03:58:46.190Z,26.06
2022-08-23T04:03:43.656Z,25.90
2022-08-23T04:08:40.645Z,25.56
2022-08-23T04:13:37.612Z,25.38
2022-08-23T04:18:34.892Z,25.49
2022-08-23T04:23:32.419Z,25.23
2022-08-23T04:28:29.547Z,25.23
2022-08-23T04:33:26.269Z,24.73
2022-08-23T04:38:24.853Z,24.70
2022-08-23T04:43:29.471Z,24.87
2022-08-23T04:48:26.291Z,24.70
2022-08-23T04:53:23.263Z,24.88
2022-08-23T04:58:38.997Z,24.87
2022-08-23T05:03:36.144Z,24.79
2022-08-23T05:08:32.958Z,25.11
2022-08-23T05:13:32.803Z,24.87
2022-08-23T05:18:33.931Z,24.94
2022-08-23T05:23:32.226Z,25.23
2022-08-23T05:28:44.394Z,25.62
2022-08-23T05:33:44.609Z,25.57
2022-08-23T05:38:48.356Z,25.64
2022-08-23T05:43:46.610Z,25.33
2022-08-23T05:48:46.396Z,25.29
2022-08-23T05:53:46.573Z,25.64
2022-08-23T05:58:44.701Z,25.46
2022-08-23T06:03:41.479Z,25.36
2022-08-23T06:08:39.619Z,25.22
2022-08-23T06:13:40.186Z,25.69
2022-08-23T06:18:37.015Z,25.32
2022-08-23T06:24:12.852Z,25.80
2022-08-23T06:29:20.443Z,25.75
2022-08-23T06:34:23.245Z,25.83
2022-08-23T06:39:46.609Z,26.23
2022-08-23T06:45:03.734Z,26.18
2022-08-23T06:50:19.228Z,25.78
2022-08-23T06:55:34.770Z,25.77
2022-08-23T07:00:57.365Z,25.98
2022-08-23T07:06:03.911Z,26.34
2022-08-23T07:11:04.449Z,26.05
2022-08-23T07:16:03.289Z,26.03
2022-08-23T07:21:03.936Z,25.64
2022-08-23T07:26:04.564Z,25.67
2022-08-23T07:31:14.497Z,25.90
2022-08-23T07:36:16.411Z,26.15
2022-08-23T07:41:14.522Z,26.05
2022-08-23T07:46:14.205Z,26.09
2022-08-23T07:51:13.075Z,26.20
2022-08-23T07:56:12.561Z,26.29
2022-08-23T08:01:25.984Z,26.53
2022-08-23T08:06:25.991Z,26.32
2022-08-23T08:11:24.774Z,26.53
2022-08-23T08:16:31.344Z,26.57
2022-08-23T08:21:30.474Z,26.93
2022-08-23T08:26:31.917Z,27.03
2022-08-23T08:31:29.585Z,26.90
2022-08-23T08:36:32.046Z,27.00
2022-08-23T08:41:40.254Z,27.17
2022-08-23T08:46:41.727Z,27.61
2022-08-23T08:51:46.833Z,27.54
2022-08-23T08:56:52.187Z,27.61
2022-08-23T09:02:00.231Z,27.68
2022-08-23T09:07:11.094Z,27.68
2022-08-23T09:12:16.175Z,27.99
2022-08-23T09:17:30.373Z,28.14
2022-08-23T09:22:33.078Z,28.18
2022-08-23T09:27:32.711Z,28.41
2022-08-23T09:32:33.413Z,28.82
2022-08-23T09:37:45.869Z,28.44
2022-08-23T09:42:43.685Z,28.96
2022-08-23T09:47:44.986Z,28.62
2022-08-23T09:52:47.780Z,28.56
2022-08-23T09:57:47.188Z,28.55
2022-08-23T10:02:46.562Z,28.89
2022-08-23T10:07:56.716Z,29.08
2022-08-23T10:12:56.033Z,29.09
2022-08-23T10:18:01.439Z,28.90
2022-08-23T10:23:07.208Z,29.24
2022-08-23T10:28:48.972Z,29.36
2022-08-23T10:33:49.967Z,29.47
2022-08-23T10:38:52.318Z,29.41
2022-08-23T10:43:57.884Z,29.68
2022-08-23T10:48:59.547Z,29.75
2022-08-23T10:54:03.587Z,29.70
2022-08-23T10:59:14.021Z,29.96
2022-08-23T11:04:17.362Z,30.09
2022-08-23T11:09:32.279Z,30.03
2022-08-23T11:14:34.482Z,29.80
2022-08-23T11:19:49.216Z,29.75
2022-08-23T11:24:54.891Z,29.96
2022-08-23T11:29:54.980Z,29.96
2022-08-23T11:35:09.952Z,30.04
2022-08-23T11:40:16.108Z,30.06
2022-08-23T11:45:44.258Z,30.26
2022-08-23T11:50:50.981Z,30.14
2022-08-23T11:56:10.346Z,30.38
2022-08-23T12:01:08.672Z,30.62
2022-08-23T12:06:07.852Z,30.86
2022-08-23T12:11:09.171Z,30.39
2022-08-23T12:16:16.604Z,30.78
2022-08-23T12:21:37.318Z,31.14
2022-08-23T12:26:44.228Z,31.12
2022-08-23T12:31:48.381Z,31.08
2022-08-23T12:36:48.049Z,30.85
2022-08-23T12:41:51.425Z,30.90
2022-08-23T12:46:49.800Z,30.82
2022-08-23T12:51:49.051Z,30.89
2022-08-23T12:56:46.224Z,31.02
2022-08-23T13:01:45.092Z,31.14
2022-08-23T13:06:43.562Z,31.04
2022-08-23T13:11:42.302Z,31.08
2022-08-23T13:16:43.314Z,30.88
2022-08-23T13:21:40.675Z,30.90
2022-08-23T13:26:39.199Z,31.09
2022-08-23T13:31:50.745Z,31.13
2022-08-23T13:36:50.000Z,31.13
2022-08-23T13:41:48.593Z,30.93
2022-08-23T13:46:46.735Z,31.11
2022-08-23T13:57:20.820Z,31.02
2022-08-23T14:02:18.560Z,31.16
2022-08-23T14:07:18.135Z,30.95
2022-08-23T14:12:16.981Z,30.84
2022-08-23T14:17:16.945Z,30.56
2022-08-23T14:22:14.152Z,29.27
2022-08-23T14:27:11.495Z,27.85
2022-08-23T14:32:11.072Z,27.10
2022-08-23T14:42:25.308Z,26.11
2022-08-23T14:47:22.132Z,26.20
2022-08-23T14:52:19.620Z,26.68
2022-08-23T14:57:16.508Z,27.19
2022-08-23T15:02:16.316Z,26.64
2022-08-23T15:07:20.480Z,25.49
2022-08-23T15:17:43.624Z,24.96
2022-08-23T15:22:45.024Z,25.27
2022-08-23T15:27:43.463Z,25.73
2022-08-23T15:32:40.550Z,25.86
2022-08-23T15:37:56.282Z,25.90
2022-08-23T15:42:53.772Z,26.26
2022-08-23T15:47:52.065Z,26.12
2022-08-23T15:52:48.853Z,26.55
2022-08-23T15:57:46.992Z,26.96
2022-08-23T16:03:06.462Z,26.97
2022-08-23T16:08:01.547Z,27.33
2022-08-23T16:12:58.590Z,27.04
2022-08-23T16:17:56.134Z,27.05
2022-08-23T16:22:53.025Z,26.87
2022-08-23T16:27:52.381Z,26.70
2022-08-23T16:32:49.226Z,26.55
2022-08-23T16:37:46.802Z,26.70
2022-08-23T16:42:43.659Z,27.27
2022-08-23T16:47:42.135Z,27.78
2022-08-23T16:52:43.149Z,27.84
2022-08-23T16:57:41.340Z,27.36
2022-08-23T17:02:38.791Z,27.62
2022-08-23T17:07:35.746Z,27.64
2022-08-23T17:12:33.521Z,26.68
2022-08-23T17:17:31.169Z,26.23
2022-08-23T17:22:27.947Z,26.07
2022-08-23T17:27:24.785Z,25.41
2022-08-23T17:32:21.514Z,25.38
2022-08-23T17:37:20.223Z,25.60
2022-08-23T17:42:17.472Z,25.59
2022-08-23T17:47:15.260Z,25.97
2022-08-23T17:52:12.427Z,26.09
2022-08-23T17:57:10.455Z,26.04
2022-08-23T18:02:07.294Z,26.15
2022-08-23T18:07:04.289Z,26.21
2022-08-23T18:12:01.138Z,26.70
2022-08-23T18:17:01.407Z,27.14
2022-08-23T18:22:02.191Z,27.34
2022-08-23T18:27:21.227Z,27.43
2022-08-23T18:32:19.991Z,27.30
2022-08-23T18:37:17.981Z,27.51
2022-08-23T18:42:14.791Z,27.68
2022-08-23T18:47:11.404Z,27.64
2022-08-23T18:52:08.924Z,27.74
2022-08-23T18:57:05.712Z,26.38
2022-08-23T19:02:02.529Z,25.81
2022-08-23T19:06:59.383Z,26.44
2022-08-23T19:11:59.692Z,26.35
2022-08-23T19:16:56.424Z,26.29
2022-08-23T19:22:02.854Z,26.71
2022-08-23T19:27:02.655Z,26.96
2022-08-23T19:31:59.594Z,27.42
2022-08-23T19:37:01.218Z,27.67
2022-08-23T19:41:58.232Z,27.67
2022-08-23T19:46:55.624Z,27.76
2022-08-23T19:51:52.424Z,27.91
2022-08-23T19:56:50.017Z,27.83
2022-08-23T20:01:46.918Z,27.52
2022-08-23T20:06:44.384Z,27.08
2022-08-23T20:11:41.260Z,27.42
2022-08-23T20:16:41.059Z,27.64
2022-08-23T20:21:39.015Z,27.64
2022-08-23T20:26:38.360Z,26.97
2022-08-23T20:31:36.121Z,26.19
2022-08-23T20:36:33.235Z,26.48
2022-08-23T20:41:31.324Z,26.82
2022-08-23T20:46:29.440Z,27.27
2022-08-23T20:51:26.961Z,27.43
2022-08-23T20:56:24.868Z,27.46
2022-08-23T21:01:21.895Z,27.39
2022-08-23T21:06:21.167Z,27.53
2022-08-23T21:11:18.775Z,27.39
2022-08-23T21:16:16.368Z,26.61
2022-08-23T21:21:13.512Z,26.89
2022-08-23T21:26:10.942Z,27.41
2022-08-23T21:31:08.609Z,27.43
2022-08-23T21:36:05.518Z,27.47
2022-08-23T21:41:04.480Z,27.65
2022-08-23T21:46:01.817Z,27.54
2022-08-23T21:50:59.215Z,27.26
2022-08-23T21:55:55.842Z,27.30
2022-08-23T22:00:52.581Z,27.40
2022-08-23T22:05:50.028Z,26.69
2022-08-23T22:10:57.643Z,26.46
2022-08-23T22:15:55.750Z,26.74
2022-08-23T22:20:53.166Z,26.52
2022-08-23T22:25:49.923Z,26.54
2022-08-23T22:30:46.794Z,26.32
2022-08-23T22:35:46.087Z,26.46
2022-08-23T22:40:49.742Z,26.67
2022-08-23T22:45:50.071Z,26.94
2022-08-23T22:50:47.210Z,26.37
2022-08-23T22:55:49.432Z,25.50
2022-08-23T23:00:46.076Z,25.27
2022-08-23T23:05:42.696Z,25.40
2022-08-23T23:10:39.380Z,25.37
2022-08-23T23:15:36.878Z,24.64
2022-08-23T23:20:40.310Z,24.53
2022-08-23T23:25:37.354Z,24.15
2022-08-23T23:30:34.763Z,24.26
2022-08-23T23:35:32.112Z,24.03
2022-08-23T23:40:28.947Z,23.90
2022-08-23T23:45:25.697Z,23.80
2022-08-23T23:50:22.818Z,24.14
2022-08-23T23:55:22.138Z,24.50
